KELP

El Paso International Airport

El Paso, Texas, USA
METAR KELP 181551Z 08004KT 10SM FEW008 BKN019 OVC026 10/07 A3034 RMK AO2 LTG DSNT NW RAE08B15E50 TSE08 SLP244 OCNL LTGICCCCG DSNT NE AND NW CB DSNT NE AND W-NW MOV NE CLDS TPG MTNS SW-NW P0000 T01000067
Observed Flight Rules
Oct-18 @ 15:51 UTC (11 minutes ago) Marginal Visual Flight Rules
Wind Visibility Clouds
80° at 4 knots 10 miles
  • Few at 800' AGL
  • Broken at 1,900' AGL
  • Overcast at 2,600' AGL
Temperatures Readings Precipitation
Current 10°C / 50°F
Dewpoint 7°C / 45°F
Humidity 82%
Altimeter 30.34" Hg
Pressure 1024.4 hPa
Elevation 1197
Current Rain 0.005
METAR KELP 181551Z 08004KT 10SM FEW008 BKN019 OVC026 10/07 A3034 RMK AO2 LTG DSNT NW RAE08B15E50 TSE08 SLP244 OCNL LTGICCCCG DSNT NE AND NW CB DSNT NE AND W-NW MOV NE CLDS TPG MTNS SW-NW P0000 T01000067
Observed Flight Rules
Oct-18 @ 15:51 UTC
(11 minutes ago)
MVFR
Wind Visibility
80° at 4 knots 10 miles
Clouds
  • Few at 800' AGL
  • Broken at 1,900' AGL
  • Overcast at 2,600' AGL
Temperature Dewpoint
10°C / 50°F 7°C / 45°F
Humidity Altimeter Pressure
82% 30.34" Hg 1024.4 hPa
Current Rain
0.005